Main page
METAR-TAF:

METAR-TAF

Airports :

Robert L. Bradshaw International Airport

Basseterre, Saint Kitts and Nevis

latitude: 17-18N, longitude: 062-41W, elevation: 48 m

Current weather observation

The report was made 1 hour and 7 minutes ago, at 12:00 UTC
Wind 12 kt from the East/Northeast
Temperature 30°C
Humidity 70%
Pressure 1016 hPa
Visibility 10 km or more
Few clouds at a height of 1900 ft

METAR: TKPK 231200Z 07012KT 9999 FEW019 30/24 Q1016

Time: 09:07 (13:07 UTC)

Forecast

The report was made 2 hours and 7 minutes ago, at 11:00 UTC
Forecast valid from 23 at 12 UTC to 24 at 12 UTC
Wind 12 kt from the East/Southeast
Visibility 10 km or more
Scattered clouds at a height of 1800 ft
Probability 30% :
Temporary
from 23 at 21 UTC to 24 at 04 UTC
rain showers,

TAF: TKPK 231100Z 2312/2412 11012KT 9999 SCT018 PROB30 TEMPO 2321/2404 SHRA

Weather observations and forecasts of more than 4000 airports (METAR and TAF reports).

The available stations are represented by yellow and red dots on the map.

Hover mouse over dot to see the name of the station.

Then click to see weather observations and forecasts.

To change the map : click on the green buttons with a black cross to zoom in, on the green button with a dash to zoom out, or on the green arrows for adjacent maps.


METAR-TAF: